Terminal Aerodrome Forecast
Issued by NWS

Home | Current Version | Previous Version | Text Only | Print | Product List | Glossary On
Versions: 1 2 3 4 5 6 7 8 9 10 11 12 13 14 15 16 17 18
000
FTUS44 KTSA 231133
TAFMLC
TAF
KMLC 231133Z 2312/2412 15006KT P6SM SCT250
     FM231500 16010G18KT P6SM SCT250
     FM231900 18015G26KT P6SM BKN250
     FM240000 19012KT P6SM SKC
     FM240600 26006KT P6SM SKC=

USA.gov is the U.S. government's official web portal to all federal, state and local government web resources and services.